createdAt,value
2022-10-10T00:01:16.309Z,6.07
2022-10-10T00:03:45.043Z,8.27
2022-10-10T00:06:14.499Z,7.30
2022-10-10T00:08:43.850Z,7.07
2022-10-10T00:11:13.448Z,7.27
2022-10-10T00:13:42.020Z,7.30
2022-10-10T00:16:11.937Z,9.53
2022-10-10T00:18:40.830Z,8.07
2022-10-10T00:21:09.966Z,8.60
2022-10-10T00:23:38.823Z,8.87
2022-10-10T00:26:09.243Z,8.27
2022-10-10T00:28:39.103Z,8.47
2022-10-10T00:31:09.036Z,10.33
2022-10-10T00:33:38.885Z,9.40
2022-10-10T00:36:07.928Z,9.20
2022-10-10T00:38:36.130Z,8.90
2022-10-10T00:41:05.536Z,9.80
2022-10-10T00:43:36.917Z,9.63
2022-10-10T00:46:06.781Z,13.50
2022-10-10T00:48:36.744Z,13.70
2022-10-10T00:51:10.817Z,9.97
2022-10-10T00:53:41.579Z,8.87
2022-10-10T00:56:11.629Z,10.93
2022-10-10T00:58:45.512Z,10.27
2022-10-10T01:01:13.721Z,10.17
2022-10-10T01:03:41.820Z,11.60
2022-10-10T01:06:11.865Z,11.33
2022-10-10T01:08:40.434Z,11.93
2022-10-10T01:11:23.979Z,17.10
2022-10-10T01:14:00.397Z,19.83
2022-10-10T01:16:39.449Z,13.23
2022-10-10T01:19:30.801Z,14.23
2022-10-10T01:22:13.610Z,13.00
2022-10-10T01:24:57.788Z,13.33
2022-10-10T01:27:31.814Z,16.90
2022-10-10T01:30:06.035Z,13.13
2022-10-10T01:32:39.813Z,14.30
2022-10-10T01:35:25.527Z,16.13
2022-10-10T01:38:01.529Z,17.80
2022-10-10T01:40:35.009Z,16.97
2022-10-10T01:43:05.449Z,17.90
2022-10-10T01:45:35.758Z,19.27
2022-10-10T01:48:06.507Z,12.97
2022-10-10T01:50:43.982Z,13.73
2022-10-10T01:53:17.005Z,15.27
2022-10-10T01:55:55.361Z,13.90
2022-10-10T01:58:42.317Z,19.23
2022-10-10T02:01:19.234Z,17.70
2022-10-10T02:03:51.407Z,18.80
2022-10-10T02:06:25.477Z,23.43
2022-10-10T02:08:58.759Z,12.83
2022-10-10T02:11:29.573Z,28.90
2022-10-10T02:14:03.962Z,23.97
2022-10-10T02:16:39.330Z,18.03
2022-10-10T02:19:09.447Z,23.30
2022-10-10T02:21:39.357Z,17.33
2022-10-10T02:24:09.611Z,16.07
2022-10-10T02:26:39.489Z,18.80
2022-10-10T02:29:11.571Z,21.37
2022-10-10T02:31:45.307Z,22.07
2022-10-10T02:34:17.584Z,28.80
2022-10-10T02:36:50.468Z,19.90
2022-10-10T02:39:22.114Z,26.90
2022-10-10T02:41:52.084Z,26.63
2022-10-10T02:44:21.298Z,16.40
2022-10-10T02:46:51.556Z,20.17
2022-10-10T02:49:25.148Z,32.77
2022-10-10T02:52:02.670Z,27.40
2022-10-10T02:54:32.832Z,26.53
2022-10-10T02:57:04.752Z,21.17
2022-10-10T02:59:33.512Z,27.53
2022-10-10T03:02:03.543Z,25.60
2022-10-10T03:04:31.665Z,20.97
2022-10-10T03:06:59.664Z,18.47
2022-10-10T03:09:27.911Z,18.87
2022-10-10T03:11:55.965Z,19.33
2022-10-10T03:14:24.206Z,26.23
2022-10-10T03:16:53.074Z,22.03
2022-10-10T03:19:22.953Z,24.70
2022-10-10T03:21:51.215Z,27.70
2022-10-10T03:24:19.252Z,31.10
2022-10-10T03:26:47.394Z,37.47
2022-10-10T03:29:17.102Z,28.93
2022-10-10T03:31:46.422Z,34.47
2022-10-10T03:34:16.206Z,28.57
2022-10-10T03:36:47.908Z,26.50
2022-10-10T03:39:19.273Z,43.77
2022-10-10T03:41:51.727Z,52.00
2022-10-10T03:44:20.423Z,42.30
2022-10-10T03:46:49.312Z,47.17
2022-10-10T03:49:17.968Z,27.33
2022-10-10T03:51:47.325Z,21.57
2022-10-10T03:54:16.664Z,32.50
2022-10-10T03:56:45.024Z,37.33
2022-10-10T03:59:13.017Z,33.97
2022-10-10T04:01:41.543Z,15.80
2022-10-10T04:04:10.432Z,30.60
2022-10-10T04:06:38.912Z,64.10
2022-10-10T04:09:08.870Z,29.60
2022-10-10T04:11:38.607Z,26.93
2022-10-10T04:14:06.950Z,32.33
2022-10-10T04:16:34.949Z,66.17
2022-10-10T04:19:03.177Z,37.63
2022-10-10T04:21:31.619Z,43.40
2022-10-10T04:23:59.668Z,42.53
2022-10-10T04:26:29.645Z,17.00
2022-10-10T04:28:57.671Z,52.03
2022-10-10T04:31:26.116Z,32.97
2022-10-10T04:33:54.836Z,36.30
2022-10-10T04:36:23.477Z,29.63
2022-10-10T04:38:51.821Z,24.50
2022-10-10T04:41:20.112Z,32.87
2022-10-10T04:43:49.760Z,36.70
2022-10-10T04:46:17.991Z,30.80
2022-10-10T04:48:46.130Z,28.70
2022-10-10T04:51:14.419Z,29.87
2022-10-10T04:53:45.789Z,36.73
2022-10-10T04:56:16.529Z,41.23
2022-10-10T04:58:44.927Z,47.87
2022-10-10T05:01:14.499Z,61.33
2022-10-10T05:03:42.947Z,53.57
2022-10-10T05:06:11.055Z,43.73
2022-10-10T05:08:39.618Z,48.50
2022-10-10T05:11:07.983Z,71.87
2022-10-10T05:13:36.330Z,79.60
2022-10-10T05:16:04.575Z,38.40
2022-10-10T05:18:36.865Z,42.23
2022-10-10T05:21:05.060Z,74.33
2022-10-10T05:23:33.460Z,52.83
2022-10-10T05:26:01.519Z,43.17
2022-10-10T05:28:29.595Z,26.60
2022-10-10T05:30:58.283Z,22.67
2022-10-10T05:33:26.382Z,19.83
2022-10-10T05:36:02.979Z,20.90
2022-10-10T05:38:31.057Z,21.40
2022-10-10T05:40:59.599Z,33.90
2022-10-10T05:43:28.410Z,22.87
2022-10-10T05:45:56.778Z,22.73
2022-10-10T05:48:25.259Z,32.13
2022-10-10T05:50:56.766Z,15.90
2022-10-10T05:53:26.168Z,10.63
2022-10-10T05:55:54.274Z,21.53
2022-10-10T05:58:22.553Z,22.47
2022-10-10T06:00:50.645Z,26.40
2022-10-10T06:03:19.203Z,21.10
2022-10-10T06:05:52.156Z,18.17
2022-10-10T06:08:21.931Z,15.77
2022-10-10T06:10:50.362Z,13.60
2022-10-10T06:13:24.260Z,27.70
2022-10-10T06:15:53.397Z,32.77
2022-10-10T06:18:21.720Z,30.33
2022-10-10T06:20:49.592Z,35.77
2022-10-10T06:23:18.257Z,49.57
2022-10-10T06:25:47.965Z,53.80
2022-10-10T06:28:16.036Z,31.10
2022-10-10T06:30:48.405Z,49.17
2022-10-10T06:33:19.071Z,28.17
2022-10-10T06:35:49.017Z,17.23
2022-10-10T06:38:17.924Z,16.60
2022-10-10T06:40:47.743Z,14.63
2022-10-10T06:43:17.622Z,16.40
2022-10-10T06:45:47.736Z,16.63
2022-10-10T06:48:16.761Z,27.10
2022-10-10T06:50:44.912Z,19.00
2022-10-10T06:53:13.064Z,24.60
2022-10-10T06:55:48.574Z,15.70
2022-10-10T06:58:16.777Z,15.37
2022-10-10T07:00:50.496Z,13.80
2022-10-10T07:03:18.611Z,12.23
2022-10-10T07:05:50.953Z,11.10
2022-10-10T07:08:19.834Z,17.27
2022-10-10T07:10:49.396Z,20.60
2022-10-10T07:13:18.234Z,15.20
2022-10-10T07:15:46.451Z,13.93
2022-10-10T07:18:14.532Z,10.27
2022-10-10T07:20:42.931Z,9.93
2022-10-10T07:23:11.532Z,10.13
2022-10-10T07:25:41.857Z,10.43
2022-10-10T07:28:12.437Z,14.50
2022-10-10T07:30:43.404Z,13.80
2022-10-10T07:33:12.481Z,11.73
2022-10-10T07:35:40.798Z,10.93
2022-10-10T07:38:11.370Z,9.23
2022-10-10T07:40:41.013Z,9.73
2022-10-10T07:43:09.107Z,10.53
2022-10-10T07:45:38.905Z,9.90
2022-10-10T07:48:07.049Z,21.77
2022-10-10T07:50:35.258Z,10.60
2022-10-10T07:53:03.699Z,9.77
2022-10-10T07:55:32.213Z,7.47
2022-10-10T07:58:03.059Z,7.13
2022-10-10T08:00:31.358Z,8.40
2022-10-10T08:03:00.727Z,8.70
2022-10-10T08:05:29.192Z,8.30
2022-10-10T08:07:57.209Z,8.20
2022-10-10T08:10:25.329Z,7.47
2022-10-10T08:12:53.382Z,6.10
2022-10-10T08:15:22.037Z,7.03
2022-10-10T08:17:50.263Z,7.03
2022-10-10T08:20:20.203Z,6.30
2022-10-10T08:22:48.386Z,6.83
2022-10-10T08:25:16.870Z,6.40
2022-10-10T08:27:45.410Z,5.90
2022-10-10T08:30:14.597Z,6.87
2022-10-10T08:32:42.746Z,7.73
2022-10-10T08:35:10.934Z,8.63
2022-10-10T08:37:40.310Z,6.97
2022-10-10T08:40:10.040Z,6.87
2022-10-10T08:42:47.855Z,5.33
2022-10-10T08:45:22.042Z,7.70
2022-10-10T08:47:55.126Z,6.40
2022-10-10T08:50:26.447Z,9.23
2022-10-10T08:52:59.928Z,8.57
2022-10-10T08:55:33.682Z,6.80
2022-10-10T08:58:07.269Z,5.87
2022-10-10T09:00:41.096Z,5.50
2022-10-10T09:03:21.484Z,4.93
2022-10-10T09:06:04.849Z,7.33
2022-10-10T09:08:50.318Z,8.07
2022-10-10T09:11:30.558Z,4.93
2022-10-10T09:14:08.826Z,6.97
2022-10-10T09:16:43.902Z,6.03
2022-10-10T09:19:24.650Z,6.10
2022-10-10T09:21:57.203Z,5.57
2022-10-10T09:24:33.242Z,5.57
2022-10-10T09:27:05.340Z,5.90
2022-10-10T09:29:39.816Z,5.90
2022-10-10T09:32:13.611Z,7.40
2022-10-10T09:34:46.237Z,5.40
2022-10-10T09:37:29.446Z,5.10
2022-10-10T09:40:18.328Z,4.63
2022-10-10T09:42:47.860Z,6.37
2022-10-10T09:45:19.361Z,5.97
2022-10-10T09:47:50.223Z,6.37
2022-10-10T09:50:18.933Z,4.40
2022-10-10T09:52:48.301Z,6.10
2022-10-10T09:55:26.793Z,5.10
2022-10-10T09:57:57.718Z,5.57
2022-10-10T10:00:30.377Z,5.77
2022-10-10T10:03:11.736Z,5.73
2022-10-10T10:05:41.921Z,6.43
2022-10-10T10:08:25.269Z,5.70
2022-10-10T10:10:58.242Z,5.90
2022-10-10T10:13:30.203Z,4.27
2022-10-10T10:16:05.823Z,4.30
2022-10-10T10:18:40.502Z,4.63
2022-10-10T10:21:19.816Z,8.60
2022-10-10T10:23:55.072Z,4.43
2022-10-10T10:26:28.031Z,5.63
2022-10-10T10:28:59.307Z,5.07
2022-10-10T10:31:54.677Z,6.07
2022-10-10T10:34:51.933Z,7.17
2022-10-10T10:37:23.993Z,5.77
2022-10-10T10:40:08.152Z,5.97
2022-10-10T10:42:52.845Z,5.13
2022-10-10T10:45:29.614Z,4.63
2022-10-10T10:48:07.764Z,5.23
2022-10-10T10:50:46.771Z,4.53
2022-10-10T10:53:26.004Z,4.13
2022-10-10T10:56:06.429Z,6.00
2022-10-10T10:59:31.372Z,4.90
2022-10-10T11:01:58.924Z,5.07
2022-10-10T11:05:24.400Z,5.13
2022-10-10T11:07:51.655Z,4.93
2022-10-10T11:10:28.263Z,7.80
2022-10-10T11:13:04.481Z,4.97
2022-10-10T11:18:33.667Z,7.50
2022-10-10T11:21:07.383Z,4.20
2022-10-10T11:23:43.451Z,5.17
2022-10-10T11:26:18.934Z,4.67
2022-10-10T11:28:52.435Z,8.83
2022-10-10T11:31:27.945Z,5.30
2022-10-10T11:34:02.648Z,3.40
2022-10-10T11:36:35.461Z,5.77
2022-10-10T11:39:06.699Z,3.80
2022-10-10T11:41:41.182Z,4.33
2022-10-10T11:44:16.503Z,5.57
2022-10-10T11:46:51.726Z,7.40
2022-10-10T11:49:26.533Z,4.57
2022-10-10T11:52:33.232Z,3.83
2022-10-10T11:55:07.485Z,4.40
2022-10-10T11:57:41.438Z,4.20
2022-10-10T12:00:15.245Z,3.80
2022-10-10T12:02:46.666Z,4.50
2022-10-10T12:05:24.049Z,3.87
2022-10-10T12:08:05.784Z,4.37
2022-10-10T12:10:38.728Z,6.97
2022-10-10T12:13:20.662Z,4.13
2022-10-10T12:15:52.540Z,4.10
2022-10-10T12:18:28.970Z,4.53
2022-10-10T12:21:09.106Z,4.53
2022-10-10T12:23:38.562Z,3.37
2022-10-10T12:26:07.278Z,5.53
2022-10-10T12:28:38.416Z,3.90
2022-10-10T12:31:29.565Z,4.23
2022-10-10T12:34:12.060Z,3.83
2022-10-10T12:36:56.289Z,6.30
2022-10-10T12:39:37.910Z,4.60
2022-10-10T12:42:31.555Z,3.93
2022-10-10T12:45:00.914Z,3.40
2022-10-10T12:47:59.868Z,3.90
2022-10-10T12:50:27.870Z,3.70
2022-10-10T12:52:58.948Z,4.10
2022-10-10T12:55:30.163Z,3.77
2022-10-10T12:58:02.898Z,5.50
2022-10-10T13:00:38.635Z,3.30
2022-10-10T13:03:14.398Z,3.77
2022-10-10T13:05:44.925Z,5.07
2022-10-10T13:08:17.325Z,3.50
2022-10-10T13:11:03.709Z,6.33
2022-10-10T13:13:32.776Z,3.87
2022-10-10T13:16:06.921Z,3.87
2022-10-10T13:18:37.952Z,7.47
2022-10-10T13:21:10.160Z,5.27
2022-10-10T13:23:42.448Z,5.30
2022-10-10T13:26:22.232Z,4.27
2022-10-10T13:28:51.720Z,3.53
2022-10-10T13:31:20.183Z,5.33
2022-10-10T13:33:48.736Z,5.20
2022-10-10T13:36:23.166Z,4.10
2022-10-10T13:38:52.008Z,6.03
2022-10-10T13:41:21.779Z,6.47
2022-10-10T13:43:50.709Z,4.30
2022-10-10T13:46:23.137Z,4.27
2022-10-10T13:48:52.139Z,4.50
2022-10-10T13:51:21.778Z,4.03
2022-10-10T13:53:52.787Z,4.13
2022-10-10T13:56:29.239Z,12.10
2022-10-10T13:59:05.947Z,3.83
2022-10-10T14:01:40.650Z,3.97
2022-10-10T14:04:18.553Z,3.90
2022-10-10T14:06:57.924Z,4.03
2022-10-10T14:09:31.904Z,5.17
2022-10-10T14:12:03.187Z,6.67
2022-10-10T14:14:35.881Z,5.23
2022-10-10T14:17:06.516Z,7.10
2022-10-10T14:19:35.518Z,6.20
2022-10-10T14:22:05.926Z,4.10
2022-10-10T14:24:34.725Z,4.70
2022-10-10T14:27:09.486Z,7.73
2022-10-10T14:29:39.233Z,9.83
2022-10-10T14:32:07.826Z,4.97
2022-10-10T14:34:35.941Z,6.60
2022-10-10T14:37:06.008Z,4.87
2022-10-10T14:39:37.225Z,4.20
2022-10-10T14:42:10.746Z,5.80
2022-10-10T14:44:39.124Z,4.43
2022-10-10T14:47:08.095Z,5.17
2022-10-10T14:49:37.077Z,4.30
2022-10-10T14:52:08.718Z,5.40
2022-10-10T14:54:36.966Z,6.50
2022-10-10T14:57:06.989Z,3.87
2022-10-10T14:59:48.861Z,4.13
2022-10-10T15:02:23.272Z,4.63
2022-10-10T15:04:51.966Z,3.80
2022-10-10T15:07:21.632Z,5.13
2022-10-10T15:12:41.788Z,4.53
2022-10-10T15:15:11.777Z,7.33
2022-10-10T15:17:40.657Z,4.90
2022-10-10T15:20:11.812Z,6.60
2022-10-10T15:22:42.439Z,4.20
2022-10-10T15:25:11.590Z,4.40
2022-10-10T15:27:40.089Z,4.33
2022-10-10T15:30:10.010Z,6.50
2022-10-10T15:32:41.591Z,6.40
2022-10-10T15:35:14.984Z,5.27
2022-10-10T15:37:45.223Z,4.00
2022-10-10T15:40:15.308Z,4.30
2022-10-10T15:42:43.349Z,10.57
2022-10-10T15:45:11.803Z,14.97
2022-10-10T15:47:46.208Z,6.97
2022-10-10T15:50:15.578Z,9.10
2022-10-10T15:52:45.627Z,6.67
2022-10-10T15:55:14.011Z,6.17
2022-10-10T15:57:42.076Z,6.30
2022-10-10T16:00:11.877Z,6.27
2022-10-10T16:02:43.273Z,6.73
2022-10-10T16:05:11.816Z,4.80
2022-10-10T16:07:47.731Z,8.00
2022-10-10T16:10:18.978Z,6.27
2022-10-10T16:12:47.352Z,6.50
2022-10-10T16:15:15.715Z,7.47
2022-10-10T16:17:43.963Z,8.83
2022-10-10T16:20:12.963Z,8.13
2022-10-10T16:22:41.705Z,4.90
2022-10-10T16:25:21.793Z,6.17
2022-10-10T16:27:52.805Z,5.83
2022-10-10T16:30:22.127Z,5.87
2022-10-10T16:32:50.582Z,5.97
2022-10-10T16:35:19.043Z,8.23
2022-10-10T16:37:47.610Z,5.17
2022-10-10T16:40:15.578Z,5.13
2022-10-10T16:42:44.327Z,5.33
2022-10-10T16:45:13.911Z,5.13
2022-10-10T16:47:42.309Z,5.70
2022-10-10T16:50:11.212Z,6.83
2022-10-10T16:52:40.660Z,5.53
2022-10-10T16:55:11.316Z,8.00
2022-10-10T16:57:41.048Z,5.63
2022-10-10T17:00:10.833Z,10.10
2022-10-10T17:02:42.364Z,5.97
2022-10-10T17:05:11.246Z,7.43
2022-10-10T17:07:39.299Z,7.00
2022-10-10T17:10:08.957Z,6.70
2022-10-10T17:12:37.173Z,6.70
2022-10-10T17:15:06.698Z,9.73
2022-10-10T17:17:36.731Z,9.80
2022-10-10T17:20:07.928Z,6.13
2022-10-10T17:22:36.327Z,6.60
2022-10-10T17:25:04.890Z,7.37
2022-10-10T17:27:35.235Z,7.77
2022-10-10T17:30:03.826Z,10.53
2022-10-10T17:32:32.718Z,9.00
2022-10-10T17:35:01.368Z,11.53
2022-10-10T17:37:32.166Z,10.70
2022-10-10T17:40:00.583Z,10.63
2022-10-10T17:42:30.373Z,11.07
2022-10-10T17:44:59.766Z,8.50
2022-10-10T17:47:28.659Z,7.70
2022-10-10T17:49:57.258Z,8.37
2022-10-10T17:52:25.905Z,10.23
2022-10-10T17:54:55.696Z,9.60
2022-10-10T17:57:23.910Z,10.27
2022-10-10T17:59:52.482Z,8.83
2022-10-10T18:02:20.904Z,15.33
2022-10-10T18:04:49.449Z,14.60
2022-10-10T18:07:18.734Z,19.90
2022-10-10T18:09:48.093Z,13.00
2022-10-10T18:12:17.681Z,17.63
2022-10-10T18:14:46.471Z,14.80
2022-10-10T18:17:15.111Z,10.13
2022-10-10T18:19:43.386Z,12.70
2022-10-10T18:22:12.173Z,8.60
2022-10-10T18:24:40.852Z,10.97
2022-10-10T18:27:09.081Z,10.93
2022-10-10T18:29:39.604Z,8.87
2022-10-10T18:32:08.189Z,9.50
2022-10-10T18:34:36.957Z,9.30
2022-10-10T18:37:06.728Z,8.77
2022-10-10T18:39:36.012Z,10.73
2022-10-10T18:42:04.935Z,9.90
2022-10-10T18:44:33.478Z,9.20
2022-10-10T18:47:03.507Z,9.00
2022-10-10T18:49:31.829Z,10.27
2022-10-10T18:52:00.461Z,9.10
2022-10-10T18:54:30.360Z,8.27
2022-10-10T18:56:59.118Z,11.53
2022-10-10T18:59:27.383Z,10.00
2022-10-10T19:01:55.681Z,8.13
2022-10-10T19:04:25.593Z,12.77
2022-10-10T19:06:57.680Z,11.40
2022-10-10T19:09:27.138Z,9.67
2022-10-10T19:11:56.003Z,8.50
2022-10-10T19:14:24.795Z,8.73
2022-10-10T19:16:53.506Z,10.87
2022-10-10T19:19:21.902Z,12.77
2022-10-10T19:21:52.377Z,11.17
2022-10-10T19:24:22.377Z,10.50
2022-10-10T19:26:53.534Z,9.13
2022-10-10T19:29:22.116Z,9.33
2022-10-10T19:31:51.452Z,10.73
2022-10-10T19:34:19.918Z,10.03
2022-10-10T19:36:48.304Z,9.57
2022-10-10T19:39:18.264Z,9.63
2022-10-10T19:41:46.646Z,11.97
2022-10-10T19:44:15.100Z,9.20
2022-10-10T19:46:43.285Z,9.13
2022-10-10T19:49:12.709Z,8.70
2022-10-10T19:51:40.795Z,8.20
2022-10-10T19:54:09.362Z,10.60
2022-10-10T19:56:39.105Z,8.50
2022-10-10T19:59:07.786Z,9.70
2022-10-10T20:01:35.939Z,8.30
2022-10-10T20:04:04.274Z,9.40
2022-10-10T20:06:33.130Z,15.17
2022-10-10T20:09:01.397Z,8.97
2022-10-10T20:11:29.974Z,9.27
2022-10-10T20:13:59.966Z,10.37
2022-10-10T20:16:28.816Z,9.60
2022-10-10T20:18:59.381Z,9.70
2022-10-10T20:21:31.724Z,10.17
2022-10-10T20:24:00.794Z,10.20
2022-10-10T20:26:29.388Z,9.47
2022-10-10T20:28:59.926Z,12.73
2022-10-10T20:31:30.841Z,10.03
2022-10-10T20:34:01.684Z,9.90
2022-10-10T20:36:31.349Z,8.50
2022-10-10T20:39:01.748Z,10.20
2022-10-10T20:41:33.441Z,9.93
2022-10-10T20:44:05.245Z,11.83
2022-10-10T20:46:35.959Z,9.27
2022-10-10T20:49:06.757Z,9.93
2022-10-10T20:51:35.689Z,9.20
2022-10-10T20:54:05.965Z,9.00
2022-10-10T20:56:35.251Z,15.97
2022-10-10T20:59:06.985Z,11.17
2022-10-10T21:01:35.780Z,9.43
2022-10-10T21:04:04.204Z,9.90
2022-10-10T21:06:34.527Z,9.73
2022-10-10T21:09:05.029Z,10.47
2022-10-10T21:11:33.249Z,9.33
2022-10-10T21:14:04.035Z,9.50
2022-10-10T21:16:35.685Z,9.83
2022-10-10T21:19:05.461Z,9.20
2022-10-10T21:21:36.738Z,11.53
2022-10-10T21:24:08.502Z,9.23
2022-10-10T21:26:37.098Z,9.67
2022-10-10T21:29:07.019Z,9.87
2022-10-10T21:31:37.877Z,8.90
2022-10-10T21:34:08.219Z,9.13
2022-10-10T21:36:38.323Z,9.57
2022-10-10T21:39:07.636Z,11.97
2022-10-10T21:41:36.484Z,9.33
2022-10-10T21:44:06.646Z,8.23
2022-10-10T21:46:36.994Z,8.90
2022-10-10T21:49:08.589Z,8.13
2022-10-10T21:51:38.976Z,9.73
2022-10-10T21:54:08.736Z,9.37
2022-10-10T21:56:36.775Z,8.40
2022-10-10T21:59:06.992Z,9.50
2022-10-10T22:01:37.285Z,8.00
2022-10-10T22:04:06.129Z,9.83
2022-10-10T22:06:34.631Z,8.43
2022-10-10T22:09:03.726Z,15.47
2022-10-10T22:11:34.476Z,8.67
2022-10-10T22:14:03.447Z,7.63
2022-10-10T22:16:34.558Z,6.93
2022-10-10T22:19:03.690Z,8.53
2022-10-10T22:21:35.191Z,8.00
2022-10-10T22:24:07.095Z,6.90
2022-10-10T22:26:36.297Z,8.07
2022-10-10T22:29:06.122Z,7.73
2022-10-10T22:31:37.704Z,9.10
2022-10-10T22:34:07.156Z,7.80
2022-10-10T22:36:35.501Z,6.60
2022-10-10T22:39:04.304Z,7.17
2022-10-10T22:41:32.527Z,7.03
2022-10-10T22:44:01.050Z,7.97
2022-10-10T22:46:29.037Z,7.10
2022-10-10T22:48:58.850Z,6.67
2022-10-10T22:51:27.208Z,6.97
2022-10-10T22:53:55.444Z,6.93
2022-10-10T22:56:24.350Z,8.23
2022-10-10T22:58:52.785Z,8.93
2022-10-10T23:01:24.273Z,11.00
2022-10-10T23:03:55.492Z,7.00
2022-10-10T23:06:25.653Z,6.57
2022-10-10T23:08:53.861Z,6.20
2022-10-10T23:11:22.228Z,8.67
2022-10-10T23:13:50.455Z,6.00
2022-10-10T23:16:18.627Z,6.50
2022-10-10T23:18:46.978Z,6.70
2022-10-10T23:21:15.161Z,13.17
2022-10-10T23:23:44.873Z,7.83
2022-10-10T23:26:14.334Z,6.70
2022-10-10T23:28:45.344Z,9.73
2022-10-10T23:31:14.503Z,9.63
2022-10-10T23:33:44.313Z,9.30
2022-10-10T23:36:15.108Z,9.27
2022-10-10T23:38:45.482Z,8.23
2022-10-10T23:41:15.489Z,6.73
2022-10-10T23:43:43.660Z,6.13
2022-10-10T23:46:12.538Z,7.00
2022-10-10T23:48:40.842Z,6.50
2022-10-10T23:51:09.734Z,6.70
2022-10-10T23:53:37.967Z,5.90
2022-10-10T23:56:08.459Z,9.80
2022-10-10T23:58:37.083Z,5.90
